sensor_id;sensor_type;location;lat;lon;timestamp;P1;durP1;ratioP1;P2;durP2;ratioP2
61483;SDS011;47349;55.640;37.692;2024-03-02T00:02:06;79.53;;;44.95;;
61483;SDS011;47349;55.640;37.692;2024-03-02T00:06:08;87.07;;;47.03;;
61483;SDS011;47349;55.640;37.692;2024-03-02T00:09:24;88.00;;;46.22;;
61483;SDS011;47349;55.640;37.692;2024-03-02T00:13:26;80.97;;;46.50;;
61483;SDS011;47349;55.640;37.692;2024-03-02T00:16:53;85.20;;;45.83;;
61483;SDS011;47349;55.640;37.692;2024-03-02T00:19:59;89.60;;;46.80;;
61483;SDS011;47349;55.640;37.692;2024-03-02T00:23:18;80.13;;;45.50;;
61483;SDS011;47349;55.640;37.692;2024-03-02T00:26:32;81.95;;;45.05;;
61483;SDS011;47349;55.640;37.692;2024-03-02T00:29:30;89.90;;;46.70;;
61483;SDS011;47349;55.640;37.692;2024-03-02T00:32:46;88.32;;;45.97;;
61483;SDS011;47349;55.640;37.692;2024-03-02T00:39:18;82.75;;;45.28;;
61483;SDS011;47349;55.640;37.692;2024-03-02T00:43:01;86.53;;;44.70;;
61483;SDS011;47349;55.640;37.692;2024-03-02T00:46:26;89.93;;;47.75;;
61483;SDS011;47349;55.640;37.692;2024-03-02T00:49:31;76.25;;;42.80;;
61483;SDS011;47349;55.640;37.692;2024-03-02T00:52:48;89.95;;;44.50;;
61483;SDS011;47349;55.640;37.692;2024-03-02T00:55:36;82.10;;;44.15;;
61483;SDS011;47349;55.640;37.692;2024-03-02T00:58:54;87.05;;;45.10;;
61483;SDS011;47349;55.640;37.692;2024-03-02T01:02:09;86.60;;;45.33;;
61483;SDS011;47349;55.640;37.692;2024-03-02T01:05:15;81.78;;;45.70;;
61483;SDS011;47349;55.640;37.692;2024-03-02T01:08:12;83.75;;;44.67;;
61483;SDS011;47349;55.640;37.692;2024-03-02T01:11:28;86.93;;;46.03;;
61483;SDS011;47349;55.640;37.692;2024-03-02T01:14:49;81.70;;;46.85;;
61483;SDS011;47349;55.640;37.692;2024-03-02T01:17:55;84.10;;;47.55;;
61483;SDS011;47349;55.640;37.692;2024-03-02T01:21:10;86.40;;;47.05;;
61483;SDS011;47349;55.640;37.692;2024-03-02T01:24:16;84.75;;;47.88;;
61483;SDS011;47349;55.640;37.692;2024-03-02T01:27:53;81.78;;;44.95;;
61483;SDS011;47349;55.640;37.692;2024-03-02T01:31:08;84.72;;;44.92;;
61483;SDS011;47349;55.640;37.692;2024-03-02T01:33:54;90.35;;;44.70;;
61483;SDS011;47349;55.640;37.692;2024-03-02T01:37:44;86.60;;;45.13;;
61483;SDS011;47349;55.640;37.692;2024-03-02T01:44:01;91.88;;;45.85;;
61483;SDS011;47349;55.640;37.692;2024-03-02T01:46:59;77.15;;;43.90;;
61483;SDS011;47349;55.640;37.692;2024-03-02T01:50:13;83.72;;;45.22;;
61483;SDS011;47349;55.640;37.692;2024-03-02T01:53:21;82.32;;;44.42;;
61483;SDS011;47349;55.640;37.692;2024-03-02T01:57:11;83.78;;;46.72;;
61483;SDS011;47349;55.640;37.692;2024-03-02T02:00:05;94.97;;;45.25;;
61483;SDS011;47349;55.640;37.692;2024-03-02T02:03:15;86.50;;;46.80;;
61483;SDS011;47349;55.640;37.692;2024-03-02T02:10:54;86.68;;;45.88;;
61483;SDS011;47349;55.640;37.692;2024-03-02T02:14:15;78.53;;;46.88;;
61483;SDS011;47349;55.640;37.692;2024-03-02T02:17:03;81.95;;;45.30;;
61483;SDS011;47349;55.640;37.692;2024-03-02T02:20:19;78.55;;;44.63;;
61483;SDS011;47349;55.640;37.692;2024-03-02T02:23:31;80.25;;;43.30;;
61483;SDS011;47349;55.640;37.692;2024-03-02T02:26:54;88.00;;;45.03;;
61483;SDS011;47349;55.640;37.692;2024-03-02T02:30:07;88.68;;;47.05;;
61483;SDS011;47349;55.640;37.692;2024-03-02T02:33:57;104.35;;;52.88;;
61483;SDS011;47349;55.640;37.692;2024-03-02T02:37:53;80.10;;;43.78;;
61483;SDS011;47349;55.640;37.692;2024-03-02T02:49:17;85.72;;;45.53;;
61483;SDS011;47349;55.640;37.692;2024-03-02T02:52:06;87.40;;;46.58;;
61483;SDS011;47349;55.640;37.692;2024-03-02T02:55:12;84.80;;;45.30;;
61483;SDS011;47349;55.640;37.692;2024-03-02T02:58:47;85.68;;;44.85;;
61483;SDS011;47349;55.640;37.692;2024-03-02T03:02:30;88.38;;;46.90;;
61483;SDS011;47349;55.640;37.692;2024-03-02T03:06:04;85.30;;;46.08;;
61483;SDS011;47349;55.640;37.692;2024-03-02T03:09:37;82.80;;;46.80;;
61483;SDS011;47349;55.640;37.692;2024-03-02T03:13:42;86.60;;;48.30;;
61483;SDS011;47349;55.640;37.692;2024-03-02T03:16:53;90.78;;;46.90;;
61483;SDS011;47349;55.640;37.692;2024-03-02T03:20:15;88.68;;;47.50;;
61483;SDS011;47349;55.640;37.692;2024-03-02T03:27:47;93.30;;;48.85;;
61483;SDS011;47349;55.640;37.692;2024-03-02T03:31:50;96.60;;;49.58;;
61483;SDS011;47349;55.640;37.692;2024-03-02T03:35:18;99.93;;;49.80;;
61483;SDS011;47349;55.640;37.692;2024-03-02T03:38:29;93.80;;;48.83;;
61483;SDS011;47349;55.640;37.692;2024-03-02T03:41:20;91.75;;;50.35;;
61483;SDS011;47349;55.640;37.692;2024-03-02T03:44:32;92.90;;;50.45;;
61483;SDS011;47349;55.640;37.692;2024-03-02T03:47:42;88.90;;;46.88;;
61483;SDS011;47349;55.640;37.692;2024-03-02T03:51:01;91.25;;;48.58;;
61483;SDS011;47349;55.640;37.692;2024-03-02T03:53:59;86.07;;;45.88;;
61483;SDS011;47349;55.640;37.692;2024-03-02T03:57:16;90.90;;;50.95;;
61483;SDS011;47349;55.640;37.692;2024-03-02T04:00:03;91.50;;;49.50;;
61483;SDS011;47349;55.640;37.692;2024-03-02T04:09:38;89.78;;;49.45;;
61483;SDS011;47349;55.640;37.692;2024-03-02T04:13:28;98.07;;;50.03;;
61483;SDS011;47349;55.640;37.692;2024-03-02T04:33:18;99.18;;;50.28;;
61483;SDS011;47349;55.640;37.692;2024-03-02T04:36:37;90.93;;;49.17;;
61483;SDS011;47349;55.640;37.692;2024-03-02T04:39:27;89.85;;;47.70;;
61483;SDS011;47349;55.640;37.692;2024-03-02T04:43:38;100.07;;;48.55;;
61483;SDS011;47349;55.640;37.692;2024-03-02T04:47:18;86.22;;;48.28;;
61483;SDS011;47349;55.640;37.692;2024-03-02T04:51:29;90.93;;;50.85;;
61483;SDS011;47349;55.640;37.692;2024-03-02T04:55:26;90.47;;;47.75;;
61483;SDS011;47349;55.640;37.692;2024-03-02T04:59:23;88.45;;;46.78;;
61483;SDS011;47349;55.640;37.692;2024-03-02T05:06:33;92.47;;;48.92;;
61483;SDS011;47349;55.640;37.692;2024-03-02T05:10:00;98.75;;;49.30;;
61483;SDS011;47349;55.640;37.692;2024-03-02T05:13:50;99.75;;;49.30;;
61483;SDS011;47349;55.640;37.692;2024-03-02T05:17:13;89.88;;;48.45;;
61483;SDS011;47349;55.640;37.692;2024-03-02T05:20:11;92.25;;;49.08;;
61483;SDS011;47349;55.640;37.692;2024-03-02T05:24:13;89.25;;;49.83;;
61483;SDS011;47349;55.640;37.692;2024-03-02T05:27:31;90.90;;;46.90;;
61483;SDS011;47349;55.640;37.692;2024-03-02T05:30:43;94.45;;;48.33;;
61483;SDS011;47349;55.640;37.692;2024-03-02T05:38:50;92.75;;;48.53;;
61483;SDS011;47349;55.640;37.692;2024-03-02T05:42:05;92.85;;;48.17;;
61483;SDS011;47349;55.640;37.692;2024-03-02T05:53:11;90.78;;;48.97;;
61483;SDS011;47349;55.640;37.692;2024-03-02T05:55:57;92.18;;;49.78;;
61483;SDS011;47349;55.640;37.692;2024-03-02T05:59:20;92.82;;;50.00;;
61483;SDS011;47349;55.640;37.692;2024-03-02T06:02:09;98.35;;;50.88;;
61483;SDS011;47349;55.640;37.692;2024-03-02T06:05:03;94.40;;;51.72;;
61483;SDS011;47349;55.640;37.692;2024-03-02T06:07:58;93.13;;;49.50;;
61483;SDS011;47349;55.640;37.692;2024-03-02T06:10:47;91.05;;;49.63;;
61483;SDS011;47349;55.640;37.692;2024-03-02T06:13:54;86.80;;;48.63;;
61483;SDS011;47349;55.640;37.692;2024-03-02T06:16:47;91.60;;;48.45;;
61483;SDS011;47349;55.640;37.692;2024-03-02T06:19:34;89.95;;;48.25;;
61483;SDS011;47349;55.640;37.692;2024-03-02T06:22:51;91.55;;;48.97;;
61483;SDS011;47349;55.640;37.692;2024-03-02T06:26:01;89.45;;;50.72;;
61483;SDS011;47349;55.640;37.692;2024-03-02T06:28:58;94.80;;;49.58;;
61483;SDS011;47349;55.640;37.692;2024-03-02T06:31:57;86.97;;;49.30;;
61483;SDS011;47349;55.640;37.692;2024-03-02T06:35:24;97.30;;;51.90;;
61483;SDS011;47349;55.640;37.692;2024-03-02T06:39:01;93.72;;;50.75;;
61483;SDS011;47349;55.640;37.692;2024-03-02T06:41:52;92.00;;;49.03;;
61483;SDS011;47349;55.640;37.692;2024-03-02T06:44:35;94.68;;;50.30;;
61483;SDS011;47349;55.640;37.692;2024-03-02T06:47:16;93.05;;;50.50;;
61483;SDS011;47349;55.640;37.692;2024-03-02T06:49:59;88.70;;;50.42;;
61483;SDS011;47349;55.640;37.692;2024-03-02T06:52:56;91.45;;;49.70;;
61483;SDS011;47349;55.640;37.692;2024-03-02T06:55:55;85.05;;;48.05;;
61483;SDS011;47349;55.640;37.692;2024-03-02T06:58:46;96.88;;;50.50;;
61483;SDS011;47349;55.640;37.692;2024-03-02T07:31:57;94.90;;;51.28;;
61483;SDS011;47349;55.640;37.692;2024-03-02T07:34:44;91.50;;;51.38;;
61483;SDS011;47349;55.640;37.692;2024-03-02T07:37:42;96.15;;;52.45;;
61483;SDS011;47349;55.640;37.692;2024-03-02T07:40:31;92.45;;;50.38;;
61483;SDS011;47349;55.640;37.692;2024-03-02T07:43:00;89.88;;;50.33;;
61483;SDS011;47349;55.640;37.692;2024-03-02T07:45:55;86.75;;;51.13;;
61483;SDS011;47349;55.640;37.692;2024-03-02T07:49:06;89.15;;;49.15;;
61483;SDS011;47349;55.640;37.692;2024-03-02T07:51:58;85.95;;;47.70;;
61483;SDS011;47349;55.640;37.692;2024-03-02T07:54:49;89.70;;;50.53;;
61483;SDS011;47349;55.640;37.692;2024-03-02T07:57:56;90.05;;;51.15;;
61483;SDS011;47349;55.640;37.692;2024-03-02T08:00:56;91.05;;;50.75;;
61483;SDS011;47349;55.640;37.692;2024-03-02T08:03:46;92.35;;;47.85;;
61483;SDS011;47349;55.640;37.692;2024-03-02T08:06:49;90.10;;;48.55;;
61483;SDS011;47349;55.640;37.692;2024-03-02T08:09:47;83.28;;;47.17;;
61483;SDS011;47349;55.640;37.692;2024-03-02T08:12:25;85.95;;;50.13;;
61483;SDS011;47349;55.640;37.692;2024-03-02T08:15:22;92.47;;;51.60;;
61483;SDS011;47349;55.640;37.692;2024-03-02T08:24:33;85.20;;;49.63;;
61483;SDS011;47349;55.640;37.692;2024-03-02T08:27:03;89.10;;;49.20;;
61483;SDS011;47349;55.640;37.692;2024-03-02T08:29:49;87.10;;;48.90;;
61483;SDS011;47349;55.640;37.692;2024-03-02T08:32:38;90.68;;;48.38;;
61483;SDS011;47349;55.640;37.692;2024-03-02T08:35:48;83.85;;;46.92;;
61483;SDS011;47349;55.640;37.692;2024-03-02T08:39:12;88.03;;;47.55;;
61483;SDS011;47349;55.640;37.692;2024-03-02T08:52:10;75.55;;;44.13;;
61483;SDS011;47349;55.640;37.692;2024-03-02T08:54:55;80.30;;;45.15;;
61483;SDS011;47349;55.640;37.692;2024-03-02T08:59:03;80.57;;;44.75;;
61483;SDS011;47349;55.640;37.692;2024-03-02T09:01:55;85.30;;;46.05;;
61483;SDS011;47349;55.640;37.692;2024-03-02T09:04:48;78.65;;;42.45;;
61483;SDS011;47349;55.640;37.692;2024-03-02T09:36:51;97.90;;;58.97;;
61483;SDS011;47349;55.640;37.692;2024-03-02T09:39:56;90.57;;;45.75;;
61483;SDS011;47349;55.640;37.692;2024-03-02T09:42:51;92.80;;;50.80;;
61483;SDS011;47349;55.640;37.692;2024-03-02T09:45:50;92.43;;;49.35;;
61483;SDS011;47349;55.640;37.692;2024-03-02T09:48:37;87.55;;;49.85;;
61483;SDS011;47349;55.640;37.692;2024-03-02T12:23:14;43.63;;;29.45;;
61483;SDS011;47349;55.640;37.692;2024-03-02T12:26:46;50.40;;;30.95;;
61483;SDS011;47349;55.640;37.692;2024-03-02T12:31:06;45.63;;;30.52;;
61483;SDS011;47349;55.640;37.692;2024-03-02T12:35:58;42.58;;;28.75;;
61483;SDS011;47349;55.640;37.692;2024-03-02T12:44:39;43.03;;;27.95;;
61483;SDS011;47349;55.640;37.692;2024-03-02T13:02:35;33.97;;;23.90;;
61483;SDS011;47349;55.640;37.692;2024-03-02T13:07:17;35.30;;;23.95;;
61483;SDS011;47349;55.640;37.692;2024-03-02T13:11:26;33.92;;;26.55;;
61483;SDS011;47349;55.640;37.692;2024-03-02T13:15:05;34.33;;;24.95;;
61483;SDS011;47349;55.640;37.692;2024-03-02T13:24:09;36.78;;;22.65;;
61483;SDS011;47349;55.640;37.692;2024-03-02T14:31:22;37.00;;;25.73;;
61483;SDS011;47349;55.640;37.692;2024-03-02T14:35:11;33.70;;;25.17;;
61483;SDS011;47349;55.640;37.692;2024-03-02T14:38:44;38.15;;;24.92;;
61483;SDS011;47349;55.640;37.692;2024-03-02T14:42:21;37.35;;;24.08;;
61483;SDS011;47349;55.640;37.692;2024-03-02T14:46:37;29.83;;;24.23;;
61483;SDS011;47349;55.640;37.692;2024-03-02T14:50:35;38.30;;;25.60;;
61483;SDS011;47349;55.640;37.692;2024-03-02T14:54:21;35.63;;;24.92;;
61483;SDS011;47349;55.640;37.692;2024-03-02T14:57:53;41.00;;;23.88;;
61483;SDS011;47349;55.640;37.692;2024-03-02T15:01:24;35.10;;;25.00;;
61483;SDS011;47349;55.640;37.692;2024-03-02T15:04:12;35.50;;;24.63;;
61483;SDS011;47349;55.640;37.692;2024-03-02T15:10:43;34.05;;;25.33;;
61483;SDS011;47349;55.640;37.692;2024-03-02T15:13:59;35.20;;;25.43;;
61483;SDS011;47349;55.640;37.692;2024-03-02T15:16:46;40.78;;;27.80;;
61483;SDS011;47349;55.640;37.692;2024-03-02T15:19:42;44.10;;;28.02;;
61483;SDS011;47349;55.640;37.692;2024-03-02T15:22:30;37.55;;;25.67;;
61483;SDS011;47349;55.640;37.692;2024-03-02T15:25:31;40.00;;;27.75;;
61483;SDS011;47349;55.640;37.692;2024-03-02T15:28:37;46.13;;;28.42;;
61483;SDS011;47349;55.640;37.692;2024-03-02T15:31:22;37.47;;;27.67;;
61483;SDS011;47349;55.640;37.692;2024-03-02T15:34:31;41.60;;;28.25;;
61483;SDS011;47349;55.640;37.692;2024-03-02T18:52:04;51.45;;;35.95;;
61483;SDS011;47349;55.640;37.692;2024-03-02T18:54:55;59.65;;;37.83;;
61483;SDS011;47349;55.640;37.692;2024-03-02T18:58:00;55.70;;;38.65;;
61483;SDS011;47349;55.640;37.692;2024-03-02T19:08:14;50.50;;;36.90;;
61483;SDS011;47349;55.640;37.692;2024-03-02T19:11:16;58.40;;;38.72;;
61483;SDS011;47349;55.640;37.692;2024-03-02T19:14:42;51.28;;;37.53;;
61483;SDS011;47349;55.640;37.692;2024-03-02T19:18:52;53.72;;;37.30;;
61483;SDS011;47349;55.640;37.692;2024-03-02T19:22:26;66.38;;;41.10;;
61483;SDS011;47349;55.640;37.692;2024-03-02T19:26:12;70.78;;;41.08;;
61483;SDS011;47349;55.640;37.692;2024-03-02T19:29:06;64.78;;;42.25;;
61483;SDS011;47349;55.640;37.692;2024-03-02T19:32:44;71.22;;;45.92;;
61483;SDS011;47349;55.640;37.692;2024-03-02T19:36:25;77.32;;;46.63;;
61483;SDS011;47349;55.640;37.692;2024-03-02T19:39:35;68.82;;;44.35;;
61483;SDS011;47349;55.640;37.692;2024-03-02T19:42:23;71.28;;;42.15;;
61483;SDS011;47349;55.640;37.692;2024-03-02T19:45:13;68.57;;;45.00;;
61483;SDS011;47349;55.640;37.692;2024-03-02T19:48:10;69.47;;;44.33;;
61483;SDS011;47349;55.640;37.692;2024-03-02T19:51:43;75.18;;;42.80;;
61483;SDS011;47349;55.640;37.692;2024-03-02T19:55:10;66.57;;;42.58;;
61483;SDS011;47349;55.640;37.692;2024-03-02T19:57:53;70.40;;;41.08;;
61483;SDS011;47349;55.640;37.692;2024-03-02T20:00:36;86.53;;;42.03;;
61483;SDS011;47349;55.640;37.692;2024-03-02T20:03:21;71.38;;;40.80;;
61483;SDS011;47349;55.640;37.692;2024-03-02T20:06:09;61.63;;;40.80;;
61483;SDS011;47349;55.640;37.692;2024-03-02T20:09:18;56.83;;;37.17;;
61483;SDS011;47349;55.640;37.692;2024-03-02T20:12:03;59.70;;;40.28;;
61483;SDS011;47349;55.640;37.692;2024-03-02T20:14:53;62.58;;;39.95;;
61483;SDS011;47349;55.640;37.692;2024-03-02T20:17:38;61.90;;;39.78;;
61483;SDS011;47349;55.640;37.692;2024-03-02T20:20:30;62.75;;;39.90;;
61483;SDS011;47349;55.640;37.692;2024-03-02T20:26:29;60.83;;;37.72;;
61483;SDS011;47349;55.640;37.692;2024-03-02T20:29:14;62.03;;;39.45;;
61483;SDS011;47349;55.640;37.692;2024-03-02T20:31:56;63.97;;;40.03;;
61483;SDS011;47349;55.640;37.692;2024-03-02T20:34:39;65.25;;;41.30;;
61483;SDS011;47349;55.640;37.692;2024-03-02T20:37:13;63.53;;;43.72;;
61483;SDS011;47349;55.640;37.692;2024-03-02T20:40:00;67.30;;;43.95;;
61483;SDS011;47349;55.640;37.692;2024-03-02T20:42:48;64.97;;;44.05;;
61483;SDS011;47349;55.640;37.692;2024-03-02T20:46:04;66.00;;;42.08;;
61483;SDS011;47349;55.640;37.692;2024-03-02T20:49:28;66.13;;;44.47;;
61483;SDS011;47349;55.640;37.692;2024-03-02T20:52:18;66.18;;;43.28;;
61483;SDS011;47349;55.640;37.692;2024-03-02T22:38:09;52.15;;;29.88;;
61483;SDS011;47349;55.640;37.692;2024-03-02T23:36:28;36.03;;;27.05;;
